sensor_id;sensor_type;location;lat;lon;timestamp;P1;P2;P0
78999;PMS7003;68406;53.914;27.416;2023-07-22T00:00:55;4.9;3.9;3.3
78999;PMS7003;68406;53.914;27.416;2023-07-22T00:06:03;4.2;3.6;3.1
78999;PMS7003;68406;53.914;27.416;2023-07-22T00:10:55;4.6;3.8;3.4
78999;PMS7003;68406;53.914;27.416;2023-07-22T00:15:55;4.3;3.6;3
78999;PMS7003;68406;53.914;27.416;2023-07-22T00:20:15;3.6;3.4;2.9
78999;PMS7003;68406;53.914;27.416;2023-07-22T00:25:15;3.9;3.7;3.1
78999;PMS7003;68406;53.914;27.416;2023-07-22T00:30:33;4.1;3.5;3
78999;PMS7003;68406;53.914;27.416;2023-07-22T00:35:55;3.5;3.2;2.9
78999;PMS7003;68406;53.914;27.416;2023-07-22T00:40:41;3.5;3.4;2.9
78999;PMS7003;68406;53.914;27.416;2023-07-22T00:45:21;4.4;3.8;3.2
78999;PMS7003;68406;53.914;27.416;2023-07-22T00:50:55;4.4;3.9;3.2
78999;PMS7003;68406;53.914;27.416;2023-07-22T00:55:19;5.2;4.5;3.8
78999;PMS7003;68406;53.914;27.416;2023-07-22T01:00:19;5.6;4.7;4.1
78999;PMS7003;68406;53.914;27.416;2023-07-22T01:05:15;6;5.3;4.2
78999;PMS7003;68406;53.914;27.416;2023-07-22T01:10:55;6.4;5.5;4.6
78999;PMS7003;68406;53.914;27.416;2023-07-22T01:15:55;5;4.6;4
78999;PMS7003;68406;53.914;27.416;2023-07-22T01:20:47;5.7;5.1;4.2
78999;PMS7003;68406;53.914;27.416;2023-07-22T01:25:15;5.8;5.3;4.5
78999;PMS7003;68406;53.914;27.416;2023-07-22T01:30:19;6;5.5;4.9
78999;PMS7003;68406;53.914;27.416;2023-07-22T01:35:55;6.1;5.7;4.8
78999;PMS7003;68406;53.914;27.416;2023-07-22T01:40:33;6.5;5.5;4.7
78999;PMS7003;68406;53.914;27.416;2023-07-22T01:45:35;5.7;5.3;4.4
78999;PMS7003;68406;53.914;27.416;2023-07-22T01:50:27;5.6;4.7;3.8
78999;PMS7003;68406;53.914;27.416;2023-07-22T01:55:55;4.7;4.3;3.6
78999;PMS7003;68406;53.914;27.416;2023-07-22T02:00:19;7.4;6.7;5.8
78999;PMS7003;68406;53.914;27.416;2023-07-22T02:05:27;7.1;6.1;5.3
78999;PMS7003;68406;53.914;27.416;2023-07-22T02:10:41;4.6;4;3.4
78999;PMS7003;68406;53.914;27.416;2023-07-22T02:15:43;5;4.7;4
78999;PMS7003;68406;53.914;27.416;2023-07-22T02:20:25;9.1;8.6;7.3
78999;PMS7003;68406;53.914;27.416;2023-07-22T02:25:31;7.1;6.8;5.7
78999;PMS7003;68406;53.914;27.416;2023-07-22T02:30:55;7.9;7.3;6.3
78999;PMS7003;68406;53.914;27.416;2023-07-22T02:35:19;8.3;7.4;6.3
78999;PMS7003;68406;53.914;27.416;2023-07-22T02:40:19;7.5;6.8;5.9
78999;PMS7003;68406;53.914;27.416;2023-07-22T02:45:55;6.9;6.2;5.4
78999;PMS7003;68406;53.914;27.416;2023-07-22T02:50:41;7.7;7.1;6
78999;PMS7003;68406;53.914;27.416;2023-07-22T02:55:25;8.6;8.1;6.8
78999;PMS7003;68406;53.914;27.416;2023-07-22T03:00:31;8.3;7.4;6.2
78999;PMS7003;68406;53.914;27.416;2023-07-22T03:05:39;8.5;7.3;6.3
78999;PMS7003;68406;53.914;27.416;2023-07-22T03:10:15;6.7;6.3;5.5
78999;PMS7003;68406;53.914;27.416;2023-07-22T03:15:33;6.2;5.1;4.4
78999;PMS7003;68406;53.914;27.416;2023-07-22T03:20:56;5.2;4.7;4.1
78999;PMS7003;68406;53.914;27.416;2023-07-22T03:25:39;4.3;3.9;3.3
78999;PMS7003;68406;53.914;27.416;2023-07-22T03:30:25;10.5;9.5;7.5
78999;PMS7003;68406;53.914;27.416;2023-07-22T03:35:32;8.9;8.1;6.9
78999;PMS7003;68406;53.914;27.416;2023-07-22T03:40:15;8.4;7.9;6.6
78999;PMS7003;68406;53.914;27.416;2023-07-22T03:45:20;7.6;6.8;5.8
78999;PMS7003;68406;53.914;27.416;2023-07-22T03:50:15;7.2;6.1;5.2
78999;PMS7003;68406;53.914;27.416;2023-07-22T03:55:47;6.9;6.4;5.5
78999;PMS7003;68406;53.914;27.416;2023-07-22T04:00:39;5.7;5.4;4.5
78999;PMS7003;68406;53.914;27.416;2023-07-22T04:05:39;5.7;5.1;4.3
78999;PMS7003;68406;53.914;27.416;2023-07-22T04:10:19;6.2;5.5;4.6
78999;PMS7003;68406;53.914;27.416;2023-07-22T04:15:19;5.8;5;4.4
78999;PMS7003;68406;53.914;27.416;2023-07-22T04:20:19;6.3;5.2;4.4
78999;PMS7003;68406;53.914;27.416;2023-07-22T04:25:55;5.3;4.8;4.1
78999;PMS7003;68406;53.914;27.416;2023-07-22T04:30:25;5.9;4.8;4
78999;PMS7003;68406;53.914;27.416;2023-07-22T04:35:40;5.8;5.1;4.3
78999;PMS7003;68406;53.914;27.416;2023-07-22T04:40:55;5.5;4.9;3.9
78999;PMS7003;68406;53.914;27.416;2023-07-22T04:45:47;6.2;5.5;4.6
78999;PMS7003;68406;53.914;27.416;2023-07-22T04:50:19;5.1;4.7;4
78999;PMS7003;68406;53.914;27.416;2023-07-22T04:55:47;6.4;5.1;4.2
78999;PMS7003;68406;53.914;27.416;2023-07-22T05:00:55;4.8;4.3;3.8
78999;PMS7003;68406;53.914;27.416;2023-07-22T05:05:41;4.9;4.3;3.5
78999;PMS7003;68406;53.914;27.416;2023-07-22T05:10:55;3.6;3.3;2.9
78999;PMS7003;68406;53.914;27.416;2023-07-22T05:15:55;3.9;3.3;2.8
78999;PMS7003;68406;53.914;27.416;2023-07-22T05:20:19;4.7;3.8;3
78999;PMS7003;68406;53.914;27.416;2023-07-22T05:25:33;4.3;4.1;3.3
78999;PMS7003;68406;53.914;27.416;2023-07-22T05:30:47;3.8;3.4;2.9
78999;PMS7003;68406;53.914;27.416;2023-07-22T05:35:55;4;3.7;3.2
78999;PMS7003;68406;53.914;27.416;2023-07-22T05:40:55;4.9;4.1;3.5
78999;PMS7003;68406;53.914;27.416;2023-07-22T05:45:47;3.1;2.5;2.2
78999;PMS7003;68406;53.914;27.416;2023-07-22T05:50:55;3.1;2.9;2.4
78999;PMS7003;68406;53.914;27.416;2023-07-22T05:55:39;3.4;3;2.6
78999;PMS7003;68406;53.914;27.416;2023-07-22T06:00:19;3.3;2.9;2.4
78999;PMS7003;68406;53.914;27.416;2023-07-22T06:05:33;3.7;3.4;2.9
78999;PMS7003;68406;53.914;27.416;2023-07-22T06:10:55;4.8;4;3.4
78999;PMS7003;68406;53.914;27.416;2023-07-22T06:15:41;3.7;3.5;3
78999;PMS7003;68406;53.914;27.416;2023-07-22T06:20:47;3.9;3.5;3.1
78999;PMS7003;68406;53.914;27.416;2023-07-22T06:25:27;4.4;4;3.5
78999;PMS7003;68406;53.914;27.416;2023-07-22T06:30:15;4.5;4.1;3.6
78999;PMS7003;68406;53.914;27.416;2023-07-22T06:35:55;4;3.9;3.5
78999;PMS7003;68406;53.914;27.416;2023-07-22T06:40:33;4.2;3.6;3.1
78999;PMS7003;68406;53.914;27.416;2023-07-22T06:45:25;4.4;4.1;3.5
78999;PMS7003;68406;53.914;27.416;2023-07-22T06:50:39;4.1;3.9;3.3
78999;PMS7003;68406;53.914;27.416;2023-07-22T06:55:53;4;3.7;3.2
78999;PMS7003;68406;53.914;27.416;2023-07-22T07:00:19;6;5.7;4.4
78999;PMS7003;68406;53.914;27.416;2023-07-22T07:05:19;3.8;3.5;3.1
78999;PMS7003;68406;53.914;27.416;2023-07-22T07:10:53;3.9;3.5;3
78999;PMS7003;68406;53.914;27.416;2023-07-22T07:15:29;3.6;3.3;2.9
78999;PMS7003;68406;53.914;27.416;2023-07-22T07:20:27;3.6;3.3;2.9
78999;PMS7003;68406;53.914;27.416;2023-07-22T07:25:41;3.1;2.8;2.3
78999;PMS7003;68406;53.914;27.416;2023-07-22T07:30:35;3.6;3.1;2.7
78999;PMS7003;68406;53.914;27.416;2023-07-22T07:35:27;3.6;3.3;2.8
78999;PMS7003;68406;53.914;27.416;2023-07-22T07:40:51;3.2;3.1;2.6
78999;PMS7003;68406;53.914;27.416;2023-07-22T07:46:11;3.5;3.3;2.9
78999;PMS7003;68406;53.914;27.416;2023-07-22T07:50:41;4;3.7;3.2
78999;PMS7003;68406;53.914;27.416;2023-07-22T07:55:15;4;3.4;3.1
78999;PMS7003;68406;53.914;27.416;2023-07-22T08:00:33;3.6;3.3;2.8
78999;PMS7003;68406;53.914;27.416;2023-07-22T08:05:27;3.7;3.3;3
78999;PMS7003;68406;53.914;27.416;2023-07-22T08:10:15;4;3.3;2.9
78999;PMS7003;68406;53.914;27.416;2023-07-22T08:15:15;3.8;3.5;3.1
78999;PMS7003;68406;53.914;27.416;2023-07-22T08:20:47;3.6;3.3;2.9
78999;PMS7003;68406;53.914;27.416;2023-07-22T08:25:41;4.1;3.7;3.2
78999;PMS7003;68406;53.914;27.416;2023-07-22T08:30:35;3;2.8;2.4
78999;PMS7003;68406;53.914;27.416;2023-07-22T08:35:41;3.1;3;2.4
78999;PMS7003;68406;53.914;27.416;2023-07-22T08:40:15;4.3;4;3.6
78999;PMS7003;68406;53.914;27.416;2023-07-22T08:45:21;3.9;3;2.6
78999;PMS7003;68406;53.914;27.416;2023-07-22T08:50:56;2.9;2.5;2.2
78999;PMS7003;68406;53.914;27.416;2023-07-22T08:55:27;2.7;2.5;2.3
78999;PMS7003;68406;53.914;27.416;2023-07-22T09:00:42;2.6;2.4;2
78999;PMS7003;68406;53.914;27.416;2023-07-22T09:05:55;2.9;2.4;2
78999;PMS7003;68406;53.914;27.416;2023-07-22T09:10:47;3.8;3.4;3
78999;PMS7003;68406;53.914;27.416;2023-07-22T09:15:15;3.4;2.8;2.4
78999;PMS7003;68406;53.914;27.416;2023-07-22T09:20:47;2.9;2.7;2.3
78999;PMS7003;68406;53.914;27.416;2023-07-22T09:25:55;3.5;3;2.6
78999;PMS7003;68406;53.914;27.416;2023-07-22T09:30:41;3.3;3;2.6
78999;PMS7003;68406;53.914;27.416;2023-07-22T09:35:55;2.9;2.5;2
78999;PMS7003;68406;53.914;27.416;2023-07-22T09:40:55;2.6;2.5;2.2
78999;PMS7003;68406;53.914;27.416;2023-07-22T09:45:15;2.9;2.7;2.4
78999;PMS7003;68406;53.914;27.416;2023-07-22T09:50:16;2.5;2.4;2
78999;PMS7003;68406;53.914;27.416;2023-07-22T09:55:37;3.4;2.8;2.4
78999;PMS7003;68406;53.914;27.416;2023-07-22T10:00:35;2.5;2.3;2
78999;PMS7003;68406;53.914;27.416;2023-07-22T10:05:41;3.1;2.6;2.2
78999;PMS7003;68406;53.914;27.416;2023-07-22T10:10:49;3.4;3.2;2.6
78999;PMS7003;68406;53.914;27.416;2023-07-22T10:15:55;2.6;2.3;2
78999;PMS7003;68406;53.914;27.416;2023-07-22T10:20:22;3.4;3.1;2.6
78999;PMS7003;68406;53.914;27.416;2023-07-22T10:25:41;2.8;2.2;1.9
78999;PMS7003;68406;53.914;27.416;2023-07-22T10:30:33;3;2.7;2.4
78999;PMS7003;68406;53.914;27.416;2023-07-22T10:36:12;2.8;2.6;2.3
78999;PMS7003;68406;53.914;27.416;2023-07-22T10:40:45;3.1;2.8;2.5
78999;PMS7003;68406;53.914;27.416;2023-07-22T10:45:49;2.4;2.3;2
78999;PMS7003;68406;53.914;27.416;2023-07-22T10:50:41;2.7;2.3;2
78999;PMS7003;68406;53.914;27.416;2023-07-22T10:55:21;2.6;2.3;2
78999;PMS7003;68406;53.914;27.416;2023-07-22T11:00:55;3;2.4;2.1
78999;PMS7003;68406;53.914;27.416;2023-07-22T11:05:46;3.3;3.1;2.5
78999;PMS7003;68406;53.914;27.416;2023-07-22T11:10:16;3.1;2.7;2.3
78999;PMS7003;68406;53.914;27.416;2023-07-22T11:15:27;2.8;2.4;2.1
78999;PMS7003;68406;53.914;27.416;2023-07-22T11:20:55;3.6;3.3;2.9
78999;PMS7003;68406;53.914;27.416;2023-07-22T11:25:27;3.2;2.9;2.5
78999;PMS7003;68406;53.914;27.416;2023-07-22T11:30:35;2.9;2.7;2.3
78999;PMS7003;68406;53.914;27.416;2023-07-22T11:35:29;3.2;2.9;2.7
78999;PMS7003;68406;53.914;27.416;2023-07-22T11:40:33;4.5;3.8;3.2
78999;PMS7003;68406;53.914;27.416;2023-07-22T11:45:27;5;4.5;4
78999;PMS7003;68406;53.914;27.416;2023-07-22T11:50:35;3.8;3.4;3.1
78999;PMS7003;68406;53.914;27.416;2023-07-22T11:55:23;3.5;3.2;2.8
78999;PMS7003;68406;53.914;27.416;2023-07-22T12:00:32;4;3.9;3.5
78999;PMS7003;68406;53.914;27.416;2023-07-22T12:05:20;3;2.8;2.3
78999;PMS7003;68406;53.914;27.416;2023-07-22T12:10:57;4.7;4.3;3.6
78999;PMS7003;68406;53.914;27.416;2023-07-22T12:15:37;4.8;4.4;3.8
78999;PMS7003;68406;53.914;27.416;2023-07-22T12:20:35;5.2;4.7;3.7
78999;PMS7003;68406;53.914;27.416;2023-07-22T12:25:35;5;4.6;3.8
78999;PMS7003;68406;53.914;27.416;2023-07-22T12:30:15;5.2;4.6;3.7
78999;PMS7003;68406;53.914;27.416;2023-07-22T12:35:41;6.4;5.6;4.7
78999;PMS7003;68406;53.914;27.416;2023-07-22T12:40:27;7.2;5.7;4.7
78999;PMS7003;68406;53.914;27.416;2023-07-22T12:45:49;8;7.2;6.1
78999;PMS7003;68406;53.914;27.416;2023-07-22T12:50:43;7;6.2;5.1
78999;PMS7003;68406;53.914;27.416;2023-07-22T12:55:43;6.5;5.9;4.9
78999;PMS7003;68406;53.914;27.416;2023-07-22T13:00:35;5.7;5.3;4.4
78999;PMS7003;68406;53.914;27.416;2023-07-22T13:05:29;7.2;6.4;5.3
78999;PMS7003;68406;53.914;27.416;2023-07-22T13:10:15;6.8;5.8;4.9
78999;PMS7003;68406;53.914;27.416;2023-07-22T13:15:57;7;6;4.6
78999;PMS7003;68406;53.914;27.416;2023-07-22T13:20:35;6.5;5.5;4.7
78999;PMS7003;68406;53.914;27.416;2023-07-22T13:25:43;5.2;4.9;4.1
78999;PMS7003;68406;53.914;27.416;2023-07-22T13:30:57;5;4.6;4
78999;PMS7003;68406;53.914;27.416;2023-07-22T13:35:49;5.7;4.6;4
78999;PMS7003;68406;53.914;27.416;2023-07-22T13:40:35;5.3;4.8;3.7
78999;PMS7003;68406;53.914;27.416;2023-07-22T13:45:49;5.7;5.2;4.5
78999;PMS7003;68406;53.914;27.416;2023-07-22T13:50:57;6.6;6.2;5.2
78999;PMS7003;68406;53.914;27.416;2023-07-22T13:55:57;6.3;5.9;4.8
78999;PMS7003;68406;53.914;27.416;2023-07-22T14:00:57;6.5;5.9;4.9
78999;PMS7003;68406;53.914;27.416;2023-07-22T14:05:57;6.1;5.9;4.8
78999;PMS7003;68406;53.914;27.416;2023-07-22T14:10:21;6.6;5.9;5.1
78999;PMS7003;68406;53.914;27.416;2023-07-22T14:15:33;6.3;5.9;5
78999;PMS7003;68406;53.914;27.416;2023-07-22T14:20:17;6.3;6;5
78999;PMS7003;68406;53.914;27.416;2023-07-22T14:25:41;7.3;6.7;5.5
78999;PMS7003;68406;53.914;27.416;2023-07-22T14:30:41;7;6.5;5.2
78999;PMS7003;68406;53.914;27.416;2023-07-22T14:35:49;5.9;5.7;5
78999;PMS7003;68406;53.914;27.416;2023-07-22T14:40:57;4.3;3.9;3.4
78999;PMS7003;68406;53.914;27.416;2023-07-22T14:45:21;5.5;4.6;3.8
78999;PMS7003;68406;53.914;27.416;2023-07-22T14:50:15;4.8;4.5;3.9
78999;PMS7003;68406;53.914;27.416;2023-07-22T14:55:33;4.8;4.4;3.8
78999;PMS7003;68406;53.914;27.416;2023-07-22T15:00:29;5.2;4.9;4.2
78999;PMS7003;68406;53.914;27.416;2023-07-22T15:05:29;5.4;5;4.3
78999;PMS7003;68406;53.914;27.416;2023-07-22T15:10:49;5.4;5.3;4.5
78999;PMS7003;68406;53.914;27.416;2023-07-22T15:15:15;5.4;5.2;4.6
78999;PMS7003;68406;53.914;27.416;2023-07-22T15:20:21;6.8;6.5;5.6
78999;PMS7003;68406;53.914;27.416;2023-07-22T15:25:57;7.7;7.2;6.5
78999;PMS7003;68406;53.914;27.416;2023-07-22T15:30:33;8.5;8.2;7.4
78999;PMS7003;68406;53.914;27.416;2023-07-22T15:35:15;10.4;9.6;8.1
78999;PMS7003;68406;53.914;27.416;2023-07-22T15:40:41;9.9;9.1;7.8
78999;PMS7003;68406;53.914;27.416;2023-07-22T15:45:57;9.8;9.5;8.2
78999;PMS7003;68406;53.914;27.416;2023-07-22T15:50:41;10.2;9.6;8
78999;PMS7003;68406;53.914;27.416;2023-07-22T15:55:21;10;9.5;8
78999;PMS7003;68406;53.914;27.416;2023-07-22T16:00:50;9.4;9;7.7
78999;PMS7003;68406;53.914;27.416;2023-07-22T16:05:45;9.1;8.5;7.3
78999;PMS7003;68406;53.914;27.416;2023-07-22T16:10:21;8.6;8.1;6.6
78999;PMS7003;68406;53.914;27.416;2023-07-22T16:15:35;7.6;7.3;6.2
78999;PMS7003;68406;53.914;27.416;2023-07-22T16:20:57;6.8;6.4;5.5
78999;PMS7003;68406;53.914;27.416;2023-07-22T16:25:15;6.9;6.5;5.5
78999;PMS7003;68406;53.914;27.416;2023-07-22T16:30:37;7.7;7.4;6.2
78999;PMS7003;68406;53.914;27.416;2023-07-22T16:35:49;8.6;7.9;6.6
78999;PMS7003;68406;53.914;27.416;2023-07-22T16:40:43;8.9;8.4;7.1
78999;PMS7003;68406;53.914;27.416;2023-07-22T16:45:29;8.9;8.6;7
78999;PMS7003;68406;53.914;27.416;2023-07-22T16:50:15;9.1;8.3;6.8
78999;PMS7003;68406;53.914;27.416;2023-07-22T16:55:45;8.6;8.3;6.9
78999;PMS7003;68406;53.914;27.416;2023-07-22T17:00:15;9.6;9.1;7.8
78999;PMS7003;68406;53.914;27.416;2023-07-22T17:05:21;10;8.6;7
78999;PMS7003;68406;53.914;27.416;2023-07-22T17:10:59;9.8;8.6;7.2
78999;PMS7003;68406;53.914;27.416;2023-07-22T17:15:45;10.2;9.4;7.6
78999;PMS7003;68406;53.914;27.416;2023-07-22T17:20:15;10.4;9.6;7.8
78999;PMS7003;68406;53.914;27.416;2023-07-22T17:25:15;11.8;10.9;9.2
78999;PMS7003;68406;53.914;27.416;2023-07-22T17:30:21;12.6;11.7;9.3
78999;PMS7003;68406;53.914;27.416;2023-07-22T17:35:15;11.9;10.9;9.2
78999;PMS7003;68406;53.914;27.416;2023-07-22T17:40:33;11.1;10.6;8.4
78999;PMS7003;68406;53.914;27.416;2023-07-22T17:45:59;10.9;10;8
78999;PMS7003;68406;53.914;27.416;2023-07-22T17:50:17;13.3;11.9;9.9
78999;PMS7003;68406;53.914;27.416;2023-07-22T17:55:47;13;12.2;9.7
78999;PMS7003;68406;53.914;27.416;2023-07-22T18:00:29;13.9;12.9;10.4
78999;PMS7003;68406;53.914;27.416;2023-07-22T18:05:21;14.1;13.1;10.2
78999;PMS7003;68406;53.914;27.416;2023-07-22T18:10:15;13.3;12.6;10.1
78999;PMS7003;68406;53.914;27.416;2023-07-22T18:15:59;14.9;12.9;10.5
78999;PMS7003;68406;53.914;27.416;2023-07-22T18:25:45;1.9;1.9;1.4
78999;PMS7003;68406;53.914;27.416;2023-07-22T18:30:59;1.6;1.4;1.1
78999;PMS7003;68406;53.914;27.416;2023-07-22T18:35:45;2.5;1.9;1.6
78999;PMS7003;68406;53.914;27.416;2023-07-22T18:40:29;2.3;1.7;1.4
78999;PMS7003;68406;53.914;27.416;2023-07-22T18:45:49;2.7;1.6;1
78999;PMS7003;68406;53.914;27.416;2023-07-22T18:50:59;1;1;0.7
78999;PMS7003;68406;53.914;27.416;2023-07-22T18:55:59;1.1;0.8;0.4
78999;PMS7003;68406;53.914;27.416;2023-07-22T19:00:51;0.6;0.2;0.1
78999;PMS7003;68406;53.914;27.416;2023-07-22T19:05:59;0.8;0.3;0.1
78999;PMS7003;68406;53.914;27.416;2023-07-22T19:10:23;0.7;0.3;0.2
78999;PMS7003;68406;53.914;27.416;2023-07-22T19:15:33;1.1;0.5;0.4
78999;PMS7003;68406;53.914;27.416;2023-07-22T19:20:57;0.5;0.2;0.2
78999;PMS7003;68406;53.914;27.416;2023-07-22T19:25:57;0.3;0.3;0.1
78999;PMS7003;68406;53.914;27.416;2023-07-22T19:30:43;0.7;0.5;0.3
78999;PMS7003;68406;53.914;27.416;2023-07-22T19:35:58;1.1;0.7;0.4
78999;PMS7003;68406;53.914;27.416;2023-07-22T19:41:01;0.9;0.5;0.4
78999;PMS7003;68406;53.914;27.416;2023-07-22T19:45:15;0.6;0.4;0.2
78999;PMS7003;68406;53.914;27.416;2023-07-22T19:50:27;0.9;0.4;0.3
78999;PMS7003;68406;53.914;27.416;2023-07-22T19:55:15;1;0.5;0.2
78999;PMS7003;68406;53.914;27.416;2023-07-22T20:00:57;1.2;0.5;0.3
78999;PMS7003;68406;53.914;27.416;2023-07-22T20:05:31;1;0.5;0.4
78999;PMS7003;68406;53.914;27.416;2023-07-22T20:10:47;1.1;0.6;0.4
78999;PMS7003;68406;53.914;27.416;2023-07-22T20:15:15;1.1;0.5;0.4
78999;PMS7003;68406;53.914;27.416;2023-07-22T20:20:16;0.8;0.4;0.3
78999;PMS7003;68406;53.914;27.416;2023-07-22T20:25:57;0.4;0.3;0.2
78999;PMS7003;68406;53.914;27.416;2023-07-22T20:30:15;0.5;0.1;0
78999;PMS7003;68406;53.914;27.416;2023-07-22T20:35:21;0.7;0.1;0
78999;PMS7003;68406;53.914;27.416;2023-07-22T20:40:43;0.4;0.1;0.1
78999;PMS7003;68406;53.914;27.416;2023-07-22T20:46:00;0.5;0.4;0.2
78999;PMS7003;68406;53.914;27.416;2023-07-22T20:50:21;0.6;0.5;0.3
78999;PMS7003;68406;53.914;27.416;2023-07-22T20:55:21;0.5;0.3;0.2
78999;PMS7003;68406;53.914;27.416;2023-07-22T21:00:43;1.1;0.3;0.3
78999;PMS7003;68406;53.914;27.416;2023-07-22T21:05:33;0.8;0.4;0.3
78999;PMS7003;68406;53.914;27.416;2023-07-22T21:10:29;1.5;0.6;0.4
78999;PMS7003;68406;53.914;27.416;2023-07-22T21:15:33;1.1;0.5;0.4
78999;PMS7003;68406;53.914;27.416;2023-07-22T21:20:43;1.1;0.4;0.3
78999;PMS7003;68406;53.914;27.416;2023-07-22T21:25:21;1.2;0.8;0.5
78999;PMS7003;68406;53.914;27.416;2023-07-22T21:30:16;0.5;0.2;0.1
78999;PMS7003;68406;53.914;27.416;2023-07-22T21:35:57;0.6;0.1;0
78999;PMS7003;68406;53.914;27.416;2023-07-22T21:40:47;1.1;0.7;0.6
78999;PMS7003;68406;53.914;27.416;2023-07-22T21:45:15;1.8;0.9;0.5
78999;PMS7003;68406;53.914;27.416;2023-07-22T21:50:21;1.6;0.9;0.7
78999;PMS7003;68406;53.914;27.416;2023-07-22T21:55:21;1.9;1.2;0.7
78999;PMS7003;68406;53.914;27.416;2023-07-22T22:00:22;1.9;1.5;1.1
78999;PMS7003;68406;53.914;27.416;2023-07-22T22:05:16;1.2;1;0.6
78999;PMS7003;68406;53.914;27.416;2023-07-22T22:10:18;1;0.8;0.5
78999;PMS7003;68406;53.914;27.416;2023-07-22T22:15:43;0.8;0.5;0.3
78999;PMS7003;68406;53.914;27.416;2023-07-22T22:20:43;1.5;0.9;0.8
78999;PMS7003;68406;53.914;27.416;2023-07-22T22:25:34;0.7;0.4;0.2
78999;PMS7003;68406;53.914;27.416;2023-07-22T22:30:15;1.7;1.3;0.9
78999;PMS7003;68406;53.914;27.416;2023-07-22T22:35:23;1.6;0.9;0.6
78999;PMS7003;68406;53.914;27.416;2023-07-22T22:40:43;1.3;1;0.6
78999;PMS7003;68406;53.914;27.416;2023-07-22T22:45:21;2.2;1.3;0.9
78999;PMS7003;68406;53.914;27.416;2023-07-22T22:50:44;1.7;1.3;0.9
78999;PMS7003;68406;53.914;27.416;2023-07-22T22:55:57;2.5;1.8;1.4
78999;PMS7003;68406;53.914;27.416;2023-07-22T23:00:47;2.8;2;1.6
78999;PMS7003;68406;53.914;27.416;2023-07-22T23:05:28;2.4;1.9;1.2
78999;PMS7003;68406;53.914;27.416;2023-07-22T23:10:47;2.6;1.9;1.5
78999;PMS7003;68406;53.914;27.416;2023-07-22T23:15:57;2.5;2.1;1.7
78999;PMS7003;68406;53.914;27.416;2023-07-22T23:20:55;2.4;1.4;1.1
78999;PMS7003;68406;53.914;27.416;2023-07-22T23:25:43;2.7;2.1;1.7
78999;PMS7003;68406;53.914;27.416;2023-07-22T23:30:55;2.8;2.1;1.7
78999;PMS7003;68406;53.914;27.416;2023-07-22T23:35:16;2.3;1.9;1.5
78999;PMS7003;68406;53.914;27.416;2023-07-22T23:40:16;2.5;2;1.5
78999;PMS7003;68406;53.914;27.416;2023-07-22T23:45:47;2.8;1.7;1.5
78999;PMS7003;68406;53.914;27.416;2023-07-22T23:50:58;2.5;1.7;1.2
78999;PMS7003;68406;53.914;27.416;2023-07-22T23:55:44;2.3;1.6;1.2
